sensor_id;sensor_type;location;lat;lon;timestamp;P1;durP1;ratioP1;P2;durP2;ratioP2
20976;SDS011;10647;51.016;3.720;2022-07-09T00:00:36;11.85;;;6.33;;
20976;SDS011;10647;51.016;3.720;2022-07-09T00:03:03;10.20;;;6.50;;
20976;SDS011;10647;51.016;3.720;2022-07-09T00:05:31;13.98;;;6.67;;
20976;SDS011;10647;51.016;3.720;2022-07-09T00:07:58;11.20;;;7.05;;
20976;SDS011;10647;51.016;3.720;2022-07-09T00:10:26;12.15;;;6.97;;
20976;SDS011;10647;51.016;3.720;2022-07-09T00:12:53;11.57;;;7.42;;
20976;SDS011;10647;51.016;3.720;2022-07-09T00:15:21;9.25;;;7.30;;
20976;SDS011;10647;51.016;3.720;2022-07-09T00:17:51;15.53;;;8.55;;
20976;SDS011;10647;51.016;3.720;2022-07-09T00:20:18;12.37;;;8.73;;
20976;SDS011;10647;51.016;3.720;2022-07-09T00:22:46;11.90;;;8.08;;
20976;SDS011;10647;51.016;3.720;2022-07-09T00:25:13;13.28;;;8.58;;
20976;SDS011;10647;51.016;3.720;2022-07-09T00:27:41;16.42;;;9.73;;
20976;SDS011;10647;51.016;3.720;2022-07-09T00:30:08;14.50;;;9.90;;
20976;SDS011;10647;51.016;3.720;2022-07-09T00:32:37;16.12;;;10.48;;
20976;SDS011;10647;51.016;3.720;2022-07-09T00:35:05;19.82;;;11.30;;
20976;SDS011;10647;51.016;3.720;2022-07-09T00:37:34;17.77;;;11.50;;
20976;SDS011;10647;51.016;3.720;2022-07-09T00:40:02;18.95;;;12.50;;
20976;SDS011;10647;51.016;3.720;2022-07-09T00:42:29;17.30;;;12.18;;
20976;SDS011;10647;51.016;3.720;2022-07-09T00:44:57;15.23;;;12.03;;
20976;SDS011;10647;51.016;3.720;2022-07-09T00:47:26;20.87;;;12.00;;
20976;SDS011;10647;51.016;3.720;2022-07-09T00:49:53;16.12;;;12.05;;
20976;SDS011;10647;51.016;3.720;2022-07-09T00:52:21;15.40;;;11.57;;
20976;SDS011;10647;51.016;3.720;2022-07-09T00:54:49;15.18;;;11.53;;
20976;SDS011;10647;51.016;3.720;2022-07-09T00:57:17;18.10;;;12.68;;
20976;SDS011;10647;51.016;3.720;2022-07-09T00:59:45;20.05;;;12.58;;
20976;SDS011;10647;51.016;3.720;2022-07-09T01:02:13;20.85;;;12.73;;
20976;SDS011;10647;51.016;3.720;2022-07-09T01:04:41;20.23;;;13.17;;
20976;SDS011;10647;51.016;3.720;2022-07-09T01:07:08;17.10;;;12.77;;
20976;SDS011;10647;51.016;3.720;2022-07-09T01:09:36;20.00;;;12.60;;
20976;SDS011;10647;51.016;3.720;2022-07-09T01:12:05;17.37;;;12.57;;
20976;SDS011;10647;51.016;3.720;2022-07-09T01:14:34;20.20;;;13.03;;
20976;SDS011;10647;51.016;3.720;2022-07-09T01:17:02;17.87;;;12.90;;
20976;SDS011;10647;51.016;3.720;2022-07-09T01:19:32;20.53;;;14.17;;
20976;SDS011;10647;51.016;3.720;2022-07-09T01:22:01;22.98;;;14.03;;
20976;SDS011;10647;51.016;3.720;2022-07-09T01:24:29;19.63;;;14.03;;
20976;SDS011;10647;51.016;3.720;2022-07-09T01:26:56;18.47;;;14.40;;
20976;SDS011;10647;51.016;3.720;2022-07-09T01:29:24;18.40;;;15.03;;
20976;SDS011;10647;51.016;3.720;2022-07-09T01:31:51;20.27;;;14.07;;
20976;SDS011;10647;51.016;3.720;2022-07-09T01:34:19;20.97;;;15.83;;
20976;SDS011;10647;51.016;3.720;2022-07-09T01:36:46;23.70;;;16.00;;
20976;SDS011;10647;51.016;3.720;2022-07-09T01:39:14;24.25;;;16.67;;
20976;SDS011;10647;51.016;3.720;2022-07-09T01:41:42;20.50;;;15.43;;
20976;SDS011;10647;51.016;3.720;2022-07-09T01:44:09;22.70;;;15.67;;
20976;SDS011;10647;51.016;3.720;2022-07-09T01:46:37;23.80;;;17.80;;
20976;SDS011;10647;51.016;3.720;2022-07-09T01:49:04;23.17;;;17.63;;
20976;SDS011;10647;51.016;3.720;2022-07-09T01:51:37;23.17;;;17.83;;
20976;SDS011;10647;51.016;3.720;2022-07-09T01:54:01;26.67;;;20.57;;
20976;SDS011;10647;51.016;3.720;2022-07-09T01:56:29;27.23;;;21.03;;
20976;SDS011;10647;51.016;3.720;2022-07-09T01:58:57;33.73;;;21.97;;
20976;SDS011;10647;51.016;3.720;2022-07-09T02:01:24;29.80;;;21.13;;
20976;SDS011;10647;51.016;3.720;2022-07-09T02:03:52;26.80;;;21.20;;
20976;SDS011;10647;51.016;3.720;2022-07-09T02:06:19;30.57;;;22.07;;
20976;SDS011;10647;51.016;3.720;2022-07-09T02:08:47;28.90;;;21.00;;
20976;SDS011;10647;51.016;3.720;2022-07-09T02:11:15;27.83;;;20.80;;
20976;SDS011;10647;51.016;3.720;2022-07-09T02:13:43;26.63;;;20.87;;
20976;SDS011;10647;51.016;3.720;2022-07-09T02:16:10;31.60;;;21.53;;
20976;SDS011;10647;51.016;3.720;2022-07-09T02:18:38;31.23;;;21.67;;
20976;SDS011;10647;51.016;3.720;2022-07-09T02:21:05;29.27;;;21.80;;
20976;SDS011;10647;51.016;3.720;2022-07-09T02:23:33;29.20;;;22.60;;
20976;SDS011;10647;51.016;3.720;2022-07-09T02:26:00;34.67;;;23.00;;
20976;SDS011;10647;51.016;3.720;2022-07-09T02:28:28;31.03;;;24.73;;
20976;SDS011;10647;51.016;3.720;2022-07-09T02:30:55;34.25;;;24.75;;
20976;SDS011;10647;51.016;3.720;2022-07-09T02:33:23;34.63;;;25.87;;
20976;SDS011;10647;51.016;3.720;2022-07-09T02:35:52;37.93;;;26.03;;
20976;SDS011;10647;51.016;3.720;2022-07-09T02:38:20;35.63;;;24.70;;
20976;SDS011;10647;51.016;3.720;2022-07-09T02:40:47;34.87;;;24.97;;
20976;SDS011;10647;51.016;3.720;2022-07-09T02:43:15;31.00;;;24.60;;
20976;SDS011;10647;51.016;3.720;2022-07-09T02:45:42;35.40;;;24.50;;
20976;SDS011;10647;51.016;3.720;2022-07-09T02:48:10;33.27;;;25.43;;
20976;SDS011;10647;51.016;3.720;2022-07-09T02:50:37;33.78;;;24.57;;
20976;SDS011;10647;51.016;3.720;2022-07-09T02:53:05;37.60;;;25.77;;
20976;SDS011;10647;51.016;3.720;2022-07-09T02:55:32;37.13;;;25.30;;
20976;SDS011;10647;51.016;3.720;2022-07-09T02:58:00;38.27;;;25.33;;
20976;SDS011;10647;51.016;3.720;2022-07-09T03:00:27;34.97;;;24.07;;
20976;SDS011;10647;51.016;3.720;2022-07-09T03:02:55;33.23;;;24.60;;
20976;SDS011;10647;51.016;3.720;2022-07-09T03:05:23;34.07;;;23.97;;
20976;SDS011;10647;51.016;3.720;2022-07-09T03:07:50;35.70;;;24.33;;
20976;SDS011;10647;51.016;3.720;2022-07-09T03:10:18;33.27;;;24.20;;
20976;SDS011;10647;51.016;3.720;2022-07-09T03:12:45;34.47;;;24.60;;
20976;SDS011;10647;51.016;3.720;2022-07-09T03:15:13;33.17;;;25.03;;
20976;SDS011;10647;51.016;3.720;2022-07-09T03:17:42;33.63;;;24.67;;
20976;SDS011;10647;51.016;3.720;2022-07-09T03:20:10;33.50;;;25.07;;
20976;SDS011;10647;51.016;3.720;2022-07-09T03:22:38;38.30;;;26.40;;
20976;SDS011;10647;51.016;3.720;2022-07-09T03:25:06;38.83;;;26.87;;
20976;SDS011;10647;51.016;3.720;2022-07-09T03:27:35;36.83;;;27.70;;
20976;SDS011;10647;51.016;3.720;2022-07-09T03:30:03;38.50;;;28.67;;
20976;SDS011;10647;51.016;3.720;2022-07-09T03:32:32;39.23;;;27.43;;
20976;SDS011;10647;51.016;3.720;2022-07-09T03:34:59;43.07;;;28.10;;
20976;SDS011;10647;51.016;3.720;2022-07-09T03:37:27;36.03;;;27.77;;
20976;SDS011;10647;51.016;3.720;2022-07-09T03:39:54;39.43;;;28.23;;
20976;SDS011;10647;51.016;3.720;2022-07-09T03:42:22;35.00;;;27.80;;
20976;SDS011;10647;51.016;3.720;2022-07-09T03:44:49;38.60;;;28.57;;
20976;SDS011;10647;51.016;3.720;2022-07-09T03:47:17;42.90;;;28.43;;
20976;SDS011;10647;51.016;3.720;2022-07-09T03:49:44;40.63;;;27.37;;
20976;SDS011;10647;51.016;3.720;2022-07-09T03:52:12;41.10;;;27.53;;
20976;SDS011;10647;51.016;3.720;2022-07-09T03:54:39;35.43;;;27.50;;
20976;SDS011;10647;51.016;3.720;2022-07-09T03:57:07;36.77;;;27.90;;
20976;SDS011;10647;51.016;3.720;2022-07-09T03:59:34;41.33;;;28.00;;
20976;SDS011;10647;51.016;3.720;2022-07-09T04:02:02;36.53;;;28.27;;
20976;SDS011;10647;51.016;3.720;2022-07-09T04:04:31;37.67;;;27.10;;
20976;SDS011;10647;51.016;3.720;2022-07-09T04:06:58;36.13;;;26.53;;
20976;SDS011;10647;51.016;3.720;2022-07-09T04:09:26;38.53;;;27.67;;
20976;SDS011;10647;51.016;3.720;2022-07-09T04:11:54;35.33;;;26.10;;
20976;SDS011;10647;51.016;3.720;2022-07-09T04:14:23;33.83;;;26.20;;
20976;SDS011;10647;51.016;3.720;2022-07-09T04:16:50;35.40;;;26.53;;
20976;SDS011;10647;51.016;3.720;2022-07-09T04:19:18;39.50;;;27.30;;
20976;SDS011;10647;51.016;3.720;2022-07-09T04:21:45;35.37;;;26.23;;
20976;SDS011;10647;51.016;3.720;2022-07-09T04:24:13;39.43;;;27.20;;
20976;SDS011;10647;51.016;3.720;2022-07-09T04:26:47;34.70;;;24.97;;
20976;SDS011;10647;51.016;3.720;2022-07-09T04:29:11;34.10;;;25.37;;
20976;SDS011;10647;51.016;3.720;2022-07-09T04:31:38;31.00;;;25.17;;
20976;SDS011;10647;51.016;3.720;2022-07-09T04:34:06;32.57;;;27.07;;
20976;SDS011;10647;51.016;3.720;2022-07-09T04:36:34;36.00;;;27.47;;
20976;SDS011;10647;51.016;3.720;2022-07-09T04:39:01;36.50;;;27.60;;
20976;SDS011;10647;51.016;3.720;2022-07-09T04:41:29;36.43;;;26.70;;
20976;SDS011;10647;51.016;3.720;2022-07-09T04:43:57;33.50;;;26.15;;
20976;SDS011;10647;51.016;3.720;2022-07-09T04:46:24;34.18;;;25.60;;
20976;SDS011;10647;51.016;3.720;2022-07-09T04:48:53;35.05;;;26.60;;
20976;SDS011;10647;51.016;3.720;2022-07-09T04:51:20;34.93;;;28.03;;
20976;SDS011;10647;51.016;3.720;2022-07-09T04:53:48;37.23;;;27.57;;
20976;SDS011;10647;51.016;3.720;2022-07-09T04:56:15;33.75;;;26.50;;
20976;SDS011;10647;51.016;3.720;2022-07-09T04:58:43;36.83;;;27.73;;
20976;SDS011;10647;51.016;3.720;2022-07-09T05:01:12;34.73;;;26.80;;
20976;SDS011;10647;51.016;3.720;2022-07-09T05:03:39;35.58;;;26.50;;
20976;SDS011;10647;51.016;3.720;2022-07-09T05:06:07;36.03;;;27.67;;
20976;SDS011;10647;51.016;3.720;2022-07-09T05:08:34;39.27;;;28.35;;
20976;SDS011;10647;51.016;3.720;2022-07-09T05:11:02;39.67;;;27.70;;
20976;SDS011;10647;51.016;3.720;2022-07-09T05:18:46;41.50;;;29.42;;
20976;SDS011;10647;51.016;3.720;2022-07-09T05:21:15;38.50;;;30.30;;
20976;SDS011;10647;51.016;3.720;2022-07-09T05:23:42;40.28;;;29.35;;
20976;SDS011;10647;51.016;3.720;2022-07-09T05:26:10;35.40;;;28.02;;
20976;SDS011;10647;51.016;3.720;2022-07-09T05:28:38;47.88;;;28.80;;
20976;SDS011;10647;51.016;3.720;2022-07-09T05:31:12;37.30;;;28.87;;
20976;SDS011;10647;51.016;3.720;2022-07-09T05:33:40;37.20;;;27.20;;
20976;SDS011;10647;51.016;3.720;2022-07-09T05:36:07;38.53;;;26.30;;
20976;SDS011;10647;51.016;3.720;2022-07-09T05:38:35;32.85;;;26.62;;
20976;SDS011;10647;51.016;3.720;2022-07-09T05:41:02;37.88;;;27.73;;
20976;SDS011;10647;51.016;3.720;2022-07-09T05:43:30;34.83;;;26.62;;
20976;SDS011;10647;51.016;3.720;2022-07-09T05:45:57;34.55;;;27.42;;
20976;SDS011;10647;51.016;3.720;2022-07-09T05:48:25;35.28;;;27.90;;
20976;SDS011;10647;51.016;3.720;2022-07-09T05:50:52;36.58;;;27.55;;
20976;SDS011;10647;51.016;3.720;2022-07-09T05:53:22;41.05;;;28.38;;
20976;SDS011;10647;51.016;3.720;2022-07-09T05:55:49;38.25;;;26.93;;
20976;SDS011;10647;51.016;3.720;2022-07-09T05:58:18;35.05;;;26.93;;
20976;SDS011;10647;51.016;3.720;2022-07-09T06:00:45;37.42;;;27.15;;
20976;SDS011;10647;51.016;3.720;2022-07-09T06:03:13;33.78;;;27.25;;
20976;SDS011;10647;51.016;3.720;2022-07-09T06:05:40;35.00;;;26.93;;
20976;SDS011;10647;51.016;3.720;2022-07-09T06:08:08;34.50;;;27.00;;
20976;SDS011;10647;51.016;3.720;2022-07-09T06:10:35;36.70;;;26.50;;
20976;SDS011;10647;51.016;3.720;2022-07-09T06:13:03;33.20;;;25.75;;
20976;SDS011;10647;51.016;3.720;2022-07-09T06:15:30;31.73;;;25.30;;
20976;SDS011;10647;51.016;3.720;2022-07-09T06:17:58;35.13;;;26.52;;
20976;SDS011;10647;51.016;3.720;2022-07-09T06:20:25;31.07;;;25.52;;
20976;SDS011;10647;51.016;3.720;2022-07-09T06:22:53;31.15;;;23.32;;
20976;SDS011;10647;51.016;3.720;2022-07-09T06:25:21;31.62;;;24.57;;
20976;SDS011;10647;51.016;3.720;2022-07-09T06:27:49;30.72;;;23.27;;
20976;SDS011;10647;51.016;3.720;2022-07-09T06:30:16;28.65;;;22.73;;
20976;SDS011;10647;51.016;3.720;2022-07-09T06:32:44;28.50;;;22.32;;
20976;SDS011;10647;51.016;3.720;2022-07-09T06:35:11;27.37;;;21.93;;
20976;SDS011;10647;51.016;3.720;2022-07-09T06:37:39;27.77;;;21.37;;
20976;SDS011;10647;51.016;3.720;2022-07-09T06:40:08;27.80;;;21.05;;
20976;SDS011;10647;51.016;3.720;2022-07-09T06:42:35;26.45;;;20.17;;
20976;SDS011;10647;51.016;3.720;2022-07-09T06:45:03;24.85;;;20.70;;
20976;SDS011;10647;51.016;3.720;2022-07-09T06:47:32;25.62;;;20.08;;
20976;SDS011;10647;51.016;3.720;2022-07-09T06:49:59;34.25;;;20.27;;
20976;SDS011;10647;51.016;3.720;2022-07-09T06:52:28;26.12;;;16.10;;
20976;SDS011;10647;51.016;3.720;2022-07-09T06:54:56;25.92;;;17.77;;
20976;SDS011;10647;51.016;3.720;2022-07-09T06:57:23;25.43;;;18.80;;
20976;SDS011;10647;51.016;3.720;2022-07-09T06:59:52;26.37;;;20.25;;
20976;SDS011;10647;51.016;3.720;2022-07-09T07:02:20;30.25;;;20.12;;
20976;SDS011;10647;51.016;3.720;2022-07-09T07:04:47;27.58;;;21.68;;
20976;SDS011;10647;51.016;3.720;2022-07-09T07:07:15;28.50;;;21.95;;
20976;SDS011;10647;51.016;3.720;2022-07-09T07:09:42;29.42;;;23.10;;
20976;SDS011;10647;51.016;3.720;2022-07-09T07:12:10;29.48;;;20.70;;
20976;SDS011;10647;51.016;3.720;2022-07-09T07:14:37;33.05;;;23.98;;
20976;SDS011;10647;51.016;3.720;2022-07-09T07:17:05;31.27;;;24.25;;
20976;SDS011;10647;51.016;3.720;2022-07-09T07:19:32;34.08;;;25.72;;
20976;SDS011;10647;51.016;3.720;2022-07-09T07:22:00;35.35;;;22.70;;
20976;SDS011;10647;51.016;3.720;2022-07-09T07:24:28;32.40;;;25.60;;
20976;SDS011;10647;51.016;3.720;2022-07-09T07:26:57;34.67;;;26.95;;
20976;SDS011;10647;51.016;3.720;2022-07-09T07:29:24;34.38;;;26.87;;
20976;SDS011;10647;51.016;3.720;2022-07-09T07:31:52;38.48;;;27.93;;
20976;SDS011;10647;51.016;3.720;2022-07-09T07:34:20;38.60;;;29.67;;
20976;SDS011;10647;51.016;3.720;2022-07-09T07:36:49;38.88;;;27.73;;
20976;SDS011;10647;51.016;3.720;2022-07-09T07:39:18;37.55;;;26.23;;
20976;SDS011;10647;51.016;3.720;2022-07-09T07:41:47;43.52;;;31.57;;
20976;SDS011;10647;51.016;3.720;2022-07-09T07:44:15;41.48;;;31.33;;
20976;SDS011;10647;51.016;3.720;2022-07-09T07:46:43;42.70;;;31.57;;
20976;SDS011;10647;51.016;3.720;2022-07-09T07:49:12;41.65;;;31.87;;
20976;SDS011;10647;51.016;3.720;2022-07-09T07:51:40;43.60;;;30.30;;
20976;SDS011;10647;51.016;3.720;2022-07-09T07:54:08;40.98;;;30.70;;
20976;SDS011;10647;51.016;3.720;2022-07-09T07:56:36;37.98;;;28.60;;
20976;SDS011;10647;51.016;3.720;2022-07-09T07:59:05;35.05;;;27.10;;
20976;SDS011;10647;51.016;3.720;2022-07-09T08:01:33;37.35;;;26.87;;
20976;SDS011;10647;51.016;3.720;2022-07-09T08:04:01;33.28;;;23.55;;
20976;SDS011;10647;51.016;3.720;2022-07-09T08:06:29;33.92;;;26.50;;
20976;SDS011;10647;51.016;3.720;2022-07-09T08:08:56;34.60;;;24.35;;
20976;SDS011;10647;51.016;3.720;2022-07-09T08:11:24;35.17;;;27.32;;
20976;SDS011;10647;51.016;3.720;2022-07-09T08:13:51;36.13;;;27.70;;
20976;SDS011;10647;51.016;3.720;2022-07-09T08:16:20;31.77;;;23.98;;
20976;SDS011;10647;51.016;3.720;2022-07-09T08:18:48;35.03;;;26.62;;
20976;SDS011;10647;51.016;3.720;2022-07-09T08:21:16;32.98;;;23.32;;
20976;SDS011;10647;51.016;3.720;2022-07-09T08:23:43;33.58;;;24.72;;
20976;SDS011;10647;51.016;3.720;2022-07-09T08:26:24;30.85;;;21.10;;
20976;SDS011;10647;51.016;3.720;2022-07-09T08:28:54;28.35;;;24.55;;
20976;SDS011;10647;51.016;3.720;2022-07-09T08:31:22;31.55;;;23.67;;
20976;SDS011;10647;51.016;3.720;2022-07-09T08:33:50;29.95;;;20.85;;
20976;SDS011;10647;51.016;3.720;2022-07-09T08:36:18;27.62;;;21.75;;
20976;SDS011;10647;51.016;3.720;2022-07-09T08:38:46;26.80;;;20.75;;
20976;SDS011;10647;51.016;3.720;2022-07-09T08:41:15;24.30;;;19.50;;
20976;SDS011;10647;51.016;3.720;2022-07-09T08:43:48;24.47;;;16.15;;
20976;SDS011;10647;51.016;3.720;2022-07-09T08:46:18;23.22;;;17.92;;
20976;SDS011;10647;51.016;3.720;2022-07-09T08:48:46;22.37;;;16.07;;
20976;SDS011;10647;51.016;3.720;2022-07-09T08:51:22;20.52;;;16.05;;
20976;SDS011;10647;51.016;3.720;2022-07-09T08:53:50;18.35;;;14.58;;
20976;SDS011;10647;51.016;3.720;2022-07-09T08:56:23;16.07;;;12.58;;
20976;SDS011;10647;51.016;3.720;2022-07-09T08:58:51;20.97;;;14.47;;
20976;SDS011;10647;51.016;3.720;2022-07-09T09:01:18;18.90;;;13.48;;
20976;SDS011;10647;51.016;3.720;2022-07-09T09:03:46;17.80;;;11.70;;
20976;SDS011;10647;51.016;3.720;2022-07-09T09:06:14;12.70;;;7.60;;
20976;SDS011;10647;51.016;3.720;2022-07-09T09:08:42;7.20;;;4.72;;
20976;SDS011;10647;51.016;3.720;2022-07-09T09:11:15;6.22;;;4.33;;
20976;SDS011;10647;51.016;3.720;2022-07-09T09:13:48;4.65;;;3.35;;
20976;SDS011;10647;51.016;3.720;2022-07-09T09:16:17;5.65;;;2.65;;
20976;SDS011;10647;51.016;3.720;2022-07-09T09:18:46;3.95;;;2.20;;
20976;SDS011;10647;51.016;3.720;2022-07-09T09:21:15;3.08;;;1.77;;
20976;SDS011;10647;51.016;3.720;2022-07-09T09:23:49;2.35;;;1.30;;
20976;SDS011;10647;51.016;3.720;2022-07-09T09:26:21;3.35;;;1.32;;
20976;SDS011;10647;51.016;3.720;2022-07-09T09:31:25;1.95;;;1.40;;
20976;SDS011;10647;51.016;3.720;2022-07-09T09:34:11;4.47;;;1.67;;
20976;SDS011;10647;51.016;3.720;2022-07-09T09:36:34;3.85;;;1.62;;
20976;SDS011;10647;51.016;3.720;2022-07-09T09:41:54;4.80;;;1.70;;
20976;SDS011;10647;51.016;3.720;2022-07-09T09:44:23;5.58;;;1.40;;
20976;SDS011;10647;51.016;3.720;2022-07-09T09:46:54;2.58;;;1.32;;
20976;SDS011;10647;51.016;3.720;2022-07-09T09:49:23;5.37;;;1.70;;
20976;SDS011;10647;51.016;3.720;2022-07-09T09:54:36;4.53;;;2.10;;
20976;SDS011;10647;51.016;3.720;2022-07-09T09:57:00;2.62;;;1.92;;
20976;SDS011;10647;51.016;3.720;2022-07-09T09:59:36;5.28;;;1.77;;
20976;SDS011;10647;51.016;3.720;2022-07-09T10:02:05;3.33;;;1.82;;
20976;SDS011;10647;51.016;3.720;2022-07-09T10:04:36;3.62;;;1.70;;
20976;SDS011;10647;51.016;3.720;2022-07-09T10:07:05;3.30;;;1.52;;
20976;SDS011;10647;51.016;3.720;2022-07-09T10:09:33;3.90;;;1.20;;
20976;SDS011;10647;51.016;3.720;2022-07-09T10:12:01;3.42;;;1.20;;
20976;SDS011;10647;51.016;3.720;2022-07-09T10:14:30;2.27;;;0.93;;
20976;SDS011;10647;51.016;3.720;2022-07-09T10:17:09;3.40;;;1.10;;
20976;SDS011;10647;51.016;3.720;2022-07-09T10:19:49;4.50;;;1.10;;
20976;SDS011;10647;51.016;3.720;2022-07-09T10:22:19;4.75;;;0.95;;
20976;SDS011;10647;51.016;3.720;2022-07-09T10:24:49;2.62;;;0.90;;
20976;SDS011;10647;51.016;3.720;2022-07-09T10:27:19;2.75;;;0.95;;
20976;SDS011;10647;51.016;3.720;2022-07-09T10:29:56;4.17;;;0.93;;
20976;SDS011;10647;51.016;3.720;2022-07-09T10:32:25;3.25;;;0.93;;
20976;SDS011;10647;51.016;3.720;2022-07-09T10:35:06;2.40;;;1.00;;
20976;SDS011;10647;51.016;3.720;2022-07-09T10:37:41;4.17;;;0.70;;
20976;SDS011;10647;51.016;3.720;2022-07-09T10:40:10;2.87;;;1.00;;
20976;SDS011;10647;51.016;3.720;2022-07-09T10:42:42;2.30;;;0.85;;
20976;SDS011;10647;51.016;3.720;2022-07-09T10:45:54;2.83;;;0.80;;
20976;SDS011;10647;51.016;3.720;2022-07-09T10:47:58;4.83;;;1.07;;
20976;SDS011;10647;51.016;3.720;2022-07-09T10:50:45;2.00;;;0.80;;
20976;SDS011;10647;51.016;3.720;2022-07-09T10:53:13;2.30;;;0.60;;
20976;SDS011;10647;51.016;3.720;2022-07-09T10:55:43;1.95;;;0.70;;
20976;SDS011;10647;51.016;3.720;2022-07-09T10:58:17;3.52;;;0.80;;
20976;SDS011;10647;51.016;3.720;2022-07-09T11:00:56;3.25;;;0.65;;
20976;SDS011;10647;51.016;3.720;2022-07-09T11:03:25;2.40;;;0.98;;
20976;SDS011;10647;51.016;3.720;2022-07-09T11:05:53;1.55;;;0.57;;
20976;SDS011;10647;51.016;3.720;2022-07-09T11:08:22;1.75;;;0.75;;
20976;SDS011;10647;51.016;3.720;2022-07-09T11:10:50;2.27;;;1.10;;
20976;SDS011;10647;51.016;3.720;2022-07-09T11:13:17;2.37;;;0.80;;
20976;SDS011;10647;51.016;3.720;2022-07-09T11:15:48;2.00;;;0.90;;
20976;SDS011;10647;51.016;3.720;2022-07-09T11:18:15;7.58;;;0.98;;
20976;SDS011;10647;51.016;3.720;2022-07-09T11:20:44;2.52;;;1.07;;
20976;SDS011;10647;51.016;3.720;2022-07-09T11:23:13;4.62;;;0.80;;
20976;SDS011;10647;51.016;3.720;2022-07-09T11:25:43;2.30;;;0.70;;
20976;SDS011;10647;51.016;3.720;2022-07-09T11:28:19;3.17;;;0.72;;
20976;SDS011;10647;51.016;3.720;2022-07-09T11:30:58;1.15;;;0.72;;
20976;SDS011;10647;51.016;3.720;2022-07-09T11:33:26;5.78;;;0.80;;
20976;SDS011;10647;51.016;3.720;2022-07-09T11:35:55;4.03;;;1.07;;
20976;SDS011;10647;51.016;3.720;2022-07-09T11:38:23;3.42;;;0.90;;
20976;SDS011;10647;51.016;3.720;2022-07-09T11:40:58;2.60;;;0.90;;
20976;SDS011;10647;51.016;3.720;2022-07-09T11:43:28;2.80;;;0.78;;
20976;SDS011;10647;51.016;3.720;2022-07-09T11:45:56;1.55;;;0.78;;
20976;SDS011;10647;51.016;3.720;2022-07-09T11:48:23;5.20;;;0.70;;
20976;SDS011;10647;51.016;3.720;2022-07-09T11:50:51;3.67;;;0.80;;
20976;SDS011;10647;51.016;3.720;2022-07-09T11:53:22;2.87;;;0.80;;
20976;SDS011;10647;51.016;3.720;2022-07-09T11:55:57;6.00;;;0.68;;
20976;SDS011;10647;51.016;3.720;2022-07-09T11:58:27;6.35;;;0.90;;
20976;SDS011;10647;51.016;3.720;2022-07-09T12:00:55;2.40;;;0.80;;
20976;SDS011;10647;51.016;3.720;2022-07-09T12:03:29;2.85;;;0.70;;
20976;SDS011;10647;51.016;3.720;2022-07-09T12:05:55;2.33;;;0.80;;
20976;SDS011;10647;51.016;3.720;2022-07-09T12:08:26;2.25;;;0.82;;
20976;SDS011;10647;51.016;3.720;2022-07-09T12:10:56;2.92;;;0.80;;
20976;SDS011;10647;51.016;3.720;2022-07-09T12:13:26;7.58;;;1.22;;
20976;SDS011;10647;51.016;3.720;2022-07-09T12:15:55;1.10;;;0.90;;
20976;SDS011;10647;51.016;3.720;2022-07-09T12:18:23;3.17;;;1.05;;
20976;SDS011;10647;51.016;3.720;2022-07-09T12:20:51;2.80;;;1.17;;
20976;SDS011;10647;51.016;3.720;2022-07-09T12:23:18;2.67;;;0.93;;
20976;SDS011;10647;51.016;3.720;2022-07-09T12:25:46;2.30;;;0.95;;
20976;SDS011;10647;51.016;3.720;2022-07-09T12:28:14;8.45;;;1.20;;
20976;SDS011;10647;51.016;3.720;2022-07-09T12:30:41;1.82;;;0.90;;
20976;SDS011;10647;51.016;3.720;2022-07-09T12:33:10;6.12;;;1.12;;
20976;SDS011;10647;51.016;3.720;2022-07-09T12:35:37;3.50;;;0.98;;
20976;SDS011;10647;51.016;3.720;2022-07-09T12:38:05;3.17;;;1.00;;
20976;SDS011;10647;51.016;3.720;2022-07-09T12:40:33;2.30;;;0.85;;
20976;SDS011;10647;51.016;3.720;2022-07-09T12:43:01;2.62;;;0.85;;
20976;SDS011;10647;51.016;3.720;2022-07-09T12:45:28;2.47;;;0.80;;
20976;SDS011;10647;51.016;3.720;2022-07-09T12:47:56;2.80;;;0.88;;
20976;SDS011;10647;51.016;3.720;2022-07-09T12:50:23;3.85;;;0.80;;
20976;SDS011;10647;51.016;3.720;2022-07-09T12:52:51;4.67;;;0.70;;
20976;SDS011;10647;51.016;3.720;2022-07-09T12:55:19;2.15;;;0.60;;
20976;SDS011;10647;51.016;3.720;2022-07-09T12:57:50;1.20;;;0.60;;
20976;SDS011;10647;51.016;3.720;2022-07-09T13:00:17;3.02;;;0.60;;
20976;SDS011;10647;51.016;3.720;2022-07-09T13:02:50;3.85;;;0.70;;
20976;SDS011;10647;51.016;3.720;2022-07-09T13:05:18;3.58;;;1.00;;
20976;SDS011;10647;51.016;3.720;2022-07-09T13:07:45;5.05;;;0.62;;
20976;SDS011;10647;51.016;3.720;2022-07-09T13:10:13;4.80;;;0.90;;
20976;SDS011;10647;51.016;3.720;2022-07-09T13:12:40;4.10;;;0.70;;
20976;SDS011;10647;51.016;3.720;2022-07-09T13:15:08;2.98;;;0.80;;
20976;SDS011;10647;51.016;3.720;2022-07-09T13:17:36;3.47;;;0.70;;
20976;SDS011;10647;51.016;3.720;2022-07-09T13:20:04;2.42;;;0.80;;
20976;SDS011;10647;51.016;3.720;2022-07-09T13:22:32;3.62;;;1.10;;
20976;SDS011;10647;51.016;3.720;2022-07-09T13:24:59;1.65;;;0.55;;
20976;SDS011;10647;51.016;3.720;2022-07-09T13:27:27;3.80;;;0.90;;
20976;SDS011;10647;51.016;3.720;2022-07-09T13:29:54;3.25;;;0.90;;
20976;SDS011;10647;51.016;3.720;2022-07-09T13:32:22;3.95;;;0.80;;
20976;SDS011;10647;51.016;3.720;2022-07-09T13:34:49;3.80;;;0.70;;
20976;SDS011;10647;51.016;3.720;2022-07-09T13:37:19;4.87;;;0.90;;
20976;SDS011;10647;51.016;3.720;2022-07-09T13:39:47;3.70;;;0.70;;
20976;SDS011;10647;51.016;3.720;2022-07-09T13:42:16;5.37;;;1.62;;
20976;SDS011;10647;51.016;3.720;2022-07-09T13:44:44;8.03;;;0.70;;
20976;SDS011;10647;51.016;3.720;2022-07-09T13:47:12;4.42;;;0.90;;
20976;SDS011;10647;51.016;3.720;2022-07-09T13:49:40;3.35;;;0.60;;
20976;SDS011;10647;51.016;3.720;2022-07-09T13:52:07;3.58;;;0.80;;
20976;SDS011;10647;51.016;3.720;2022-07-09T13:54:35;4.47;;;0.60;;
20976;SDS011;10647;51.016;3.720;2022-07-09T13:57:03;4.50;;;0.98;;
20976;SDS011;10647;51.016;3.720;2022-07-09T13:59:30;3.30;;;0.93;;
20976;SDS011;10647;51.016;3.720;2022-07-09T14:01:58;3.33;;;0.90;;
20976;SDS011;10647;51.016;3.720;2022-07-09T14:04:26;4.45;;;1.00;;
20976;SDS011;10647;51.016;3.720;2022-07-09T14:06:53;17.25;;;1.42;;
20976;SDS011;10647;51.016;3.720;2022-07-09T14:09:21;13.88;;;1.67;;
20976;SDS011;10647;51.016;3.720;2022-07-09T14:11:49;3.42;;;0.82;;
20976;SDS011;10647;51.016;3.720;2022-07-09T14:14:17;8.55;;;1.10;;
20976;SDS011;10647;51.016;3.720;2022-07-09T14:16:44;49.73;;;2.87;;
20976;SDS011;10647;51.016;3.720;2022-07-09T14:19:12;6.78;;;1.12;;
20976;SDS011;10647;51.016;3.720;2022-07-09T14:21:40;4.80;;;0.90;;
20976;SDS011;10647;51.016;3.720;2022-07-09T14:24:07;13.55;;;1.50;;
20976;SDS011;10647;51.016;3.720;2022-07-09T14:26:35;4.42;;;1.25;;
20976;SDS011;10647;51.016;3.720;2022-07-09T14:29:02;3.65;;;1.02;;
20976;SDS011;10647;51.016;3.720;2022-07-09T14:31:30;4.53;;;1.30;;
20976;SDS011;10647;51.016;3.720;2022-07-09T14:33:57;3.47;;;0.93;;
20976;SDS011;10647;51.016;3.720;2022-07-09T14:36:25;3.70;;;1.00;;
20976;SDS011;10647;51.016;3.720;2022-07-09T14:38:52;5.78;;;1.02;;
20976;SDS011;10647;51.016;3.720;2022-07-09T14:41:20;9.68;;;1.40;;
20976;SDS011;10647;51.016;3.720;2022-07-09T14:43:47;4.75;;;0.80;;
20976;SDS011;10647;51.016;3.720;2022-07-09T14:46:15;5.30;;;1.22;;
20976;SDS011;10647;51.016;3.720;2022-07-09T14:48:43;3.52;;;0.82;;
20976;SDS011;10647;51.016;3.720;2022-07-09T14:51:10;4.85;;;0.90;;